Time;durP1;ratioP1;P1;durP2;ratioP2;P2;SDS_P1;SDS_P2;PMS_P1;PMS_P2;Temp;Humidity;BMP_temperature;BMP_pressure;BME280_temperature;BME280_humidity;BME280_pressure;Samples;Min_cycle;Max_cycle;Signal;HPM_P1;HPM_P2
2023/09/05 00:00:39;;;;;;;1.80;1.70;;;;;;;18.92;58.83;102138.19;4967509;28;116459;-63
2023/09/05 00:03:04;;;;;;;1.83;1.70;;;;;;;18.90;58.77;102135.16;4963937;28;97273;-64
2023/09/05 00:05:32;;;;;;;1.50;1.40;;;;;;;18.88;58.75;102140.50;4967293;28;112754;-64
2023/09/05 00:07:57;;;;;;;1.83;1.73;;;;;;;18.86;58.85;102143.03;4962119;28;97160;-64
2023/09/05 00:10:23;;;;;;;2.20;1.70;;;;;;;18.74;58.79;102144.34;4966409;28;114553;-65
2023/09/05 00:12:51;;;;;;;1.63;1.53;;;;;;;18.69;58.91;102142.38;4966960;28;96795;-64
2023/09/05 00:15:16;;;;;;;1.70;1.60;;;;;;;18.66;58.98;102144.16;4965047;28;97028;-63
2023/09/05 00:17:43;;;;;;;1.70;1.60;;;;;;;18.66;59.19;102135.78;4959980;28;97260;-63
2023/09/05 00:20:09;;;;;;;1.73;1.63;;;;;;;18.67;59.08;102136.53;4965998;28;96993;-63
2023/09/05 00:22:35;;;;;;;5.73;2.00;;;;;;;18.63;58.97;102127.69;4964633;28;96963;-65
2023/09/05 00:25:00;;;;;;;1.80;1.70;;;;;;;18.58;59.16;102134.81;4966719;28;98476;-64
2023/09/05 00:27:25;;;;;;;2.30;1.50;;;;;;;18.55;59.34;102137.84;4968986;28;97213;-64
2023/09/05 00:29:51;;;;;;;1.57;1.47;;;;;;;18.55;59.30;102130.25;4968245;28;96781;-64
2023/09/05 00:32:18;;;;;;;1.87;1.63;;;;;;;18.53;59.19;102118.09;4964938;28;96795;-64
2023/09/05 00:34:44;;;;;;;1.93;1.83;;;;;;;18.52;59.28;102119.38;4960719;28;98039;-63
2023/09/05 00:37:09;;;;;;;3.77;2.27;;;;;;;18.50;59.39;102121.91;4969268;28;96734;-64
2023/09/05 00:39:40;;;;;;;1.93;1.83;;;;;;;18.48;59.30;102118.84;4966318;28;96975;-65
2023/09/05 00:42:10;;;;;;;1.57;1.47;;;;;;;18.45;59.31;102120.66;4962809;28;97142;-64
2023/09/05 00:44:36;;;;;;;2.40;2.20;;;;;;;18.40;59.41;102113.03;4962962;28;97266;-63
2023/09/05 00:47:04;;;;;;;2.10;2.00;;;;;;;18.34;59.62;102115.09;4962628;28;96993;-63
2023/09/05 00:49:39;;;;;;;3.70;2.20;;;;;;;18.30;59.60;102113.84;4964360;28;97322;-64
2023/09/05 00:52:05;;;;;;;2.60;2.40;;;;;;;18.26;59.79;102124.50;4968089;28;97690;-64
2023/09/05 00:54:30;;;;;;;2.20;2.03;;;;;;;18.27;59.72;102123.22;4964268;28;98534;-64
2023/09/05 00:56:57;;;;;;;2.63;2.10;;;;;;;18.26;59.90;102124.50;4964021;28;97083;-64
2023/09/05 00:59:23;;;;;;;2.23;2.07;;;;;;;18.24;59.77;102127.75;4968848;28;97294;-63
2023/09/05 01:01:48;;;;;;;2.07;1.90;;;;;;;18.24;59.79;102130.56;4968306;28;97243;-63
2023/09/05 01:04:14;;;;;;;2.30;1.80;;;;;;;18.22;59.93;102130.31;4963376;28;97286;-63
2023/09/05 01:06:54;;;;;;;2.10;2.00;;;;;;;18.20;59.84;102123.72;4965039;28;96650;-64
2023/09/05 01:09:31;;;;;;;2.07;1.63;;;;;;;18.15;60.07;102119.69;4966673;28;96955;-64
2023/09/05 01:11:58;;;;;;;1.80;1.70;;;;;;;18.15;60.03;102116.16;4963664;28;97289;-64
2023/09/05 01:14:23;;;;;;;2.00;1.87;;;;;;;18.15;59.97;102116.88;4972741;28;97742;-63
2023/09/05 01:16:48;;;;;;;1.70;1.60;;;;;;;18.13;59.91;102113.84;4971001;28;96944;-64
2023/09/05 01:19:16;;;;;;;1.80;1.70;;;;;;;18.12;59.88;102111.59;4967625;28;98157;-64
2023/09/05 01:22:16;;;;;;;2.20;2.00;;;;;;;18.06;60.81;102105.28;4967333;28;96963;-64
2023/09/05 01:24:42;;;;;;;3.83;1.67;;;;;;;18.05;60.19;102114.88;4965829;28;97107;-64
2023/09/05 01:27:09;;;;;;;2.10;2.00;;;;;;;18.04;60.16;102113.38;4966609;28;98074;-63
2023/09/05 01:29:35;;;;;;;2.70;2.43;;;;;;;18.04;60.17;102114.16;4971469;28;97443;-64
2023/09/05 01:32:05;;;;;;;1.97;1.87;;;;;;;18.05;60.18;102114.88;4969713;28;96815;-64
2023/09/05 01:34:31;;;;;;;3.13;1.97;;;;;;;18.06;60.16;102111.63;4971209;28;97436;-65
2023/09/05 01:36:57;;;;;;;1.80;1.70;;;;;;;18.06;60.10;102116.41;4967770;28;97107;-64
2023/09/05 01:39:22;;;;;;;2.90;1.97;;;;;;;18.06;60.10;102094.13;4965206;28;97337;-63
2023/09/05 01:41:48;;;;;;;1.77;1.67;;;;;;;18.04;60.34;102103.00;4965563;28;96954;-65
2023/09/05 01:44:14;;;;;;;2.20;1.80;;;;;;;18.06;60.43;102094.13;4966553;28;97471;-64
2023/09/05 01:46:39;;;;;;;3.03;2.30;;;;;;;18.06;60.19;102094.91;4965526;28;96756;-64
2023/09/05 01:49:05;;;;;;;2.80;1.70;;;;;;;18.04;60.15;102097.44;4963517;28;103105;-64
2023/09/05 01:51:30;;;;;;;2.00;1.90;;;;;;;17.97;60.32;102090.34;4969220;28;96998;-64
2023/09/05 01:53:56;;;;;;;1.97;1.80;;;;;;;17.93;60.40;102095.41;4968947;28;97399;-63
2023/09/05 01:56:21;;;;;;;2.00;1.90;;;;;;;17.92;60.41;102084.78;4966390;28;105634;-64
2023/09/05 01:58:46;;;;;;;1.97;1.87;;;;;;;17.90;60.54;102085.31;4971451;28;97028;-65
2023/09/05 02:01:12;;;;;;;2.10;2.00;;;;;;;17.90;60.46;102085.31;4967104;28;99923;-64
2023/09/05 02:03:38;;;;;;;2.10;2.00;;;;;;;17.85;60.57;102088.84;4961080;28;107104;-63
2023/09/05 02:06:03;;;;;;;2.90;2.10;;;;;;;17.85;60.68;102086.06;4965937;28;97179;-63
2023/09/05 02:08:29;;;;;;;1.70;1.60;;;;;;;17.81;60.72;102082.78;4966258;28;97171;-64
2023/09/05 02:10:54;;;;;;;3.70;2.27;;;;;;;17.79;60.77;102093.66;4967565;28;97300;-64
2023/09/05 02:13:19;;;;;;;3.90;1.80;;;;;;;17.83;60.61;102096.94;4964444;28;111382;-64
2023/09/05 02:15:45;;;;;;;1.87;1.77;;;;;;;17.81;60.69;102093.16;4964705;28;97300;-64
2023/09/05 02:18:13;;;;;;;6.10;1.90;;;;;;;17.81;60.61;102082.78;4968399;28;97114;-63
2023/09/05 02:20:39;;;;;;;2.20;2.00;;;;;;;17.80;60.63;102092.38;4967305;28;97174;-64
2023/09/05 02:23:04;;;;;;;2.10;2.00;;;;;;;17.78;60.64;102092.13;4965723;28;97475;-63
2023/09/05 02:25:30;;;;;;;2.43;2.23;;;;;;;17.76;60.61;102091.88;4966486;28;97706;-64
2023/09/05 02:27:55;;;;;;;2.00;1.90;;;;;;;17.76;60.58;102088.34;4968990;28;97185;-64
2023/09/05 02:30:21;;;;;;;1.90;1.80;;;;;;;17.73;60.75;102090.13;4964133;28;97248;-64
2023/09/05 02:32:53;;;;;;;2.73;2.53;;;;;;;17.71;60.90;102095.44;4968893;28;97323;-64
2023/09/05 02:35:21;;;;;;;2.13;1.97;;;;;;;17.70;60.74;102091.13;4966500;28;97004;-64
2023/09/05 02:37:54;;;;;;;2.60;1.77;;;;;;;17.71;60.83;102087.06;4967996;28;97066;-64
2023/09/05 02:40:20;;;;;;;1.67;1.57;;;;;;;17.70;60.80;102085.56;4969016;28;97254;-64
2023/09/05 02:42:45;;;;;;;2.27;2.00;;;;;;;17.69;60.74;102080.53;4964648;28;97550;-64
2023/09/05 02:45:11;;;;;;;2.63;2.43;;;;;;;17.68;60.94;102081.78;4962407;28;97125;-64
2023/09/05 02:47:36;;;;;;;2.03;1.93;;;;;;;17.69;60.95;102072.91;4965917;28;96603;-64
2023/09/05 02:50:02;;;;;;;2.40;2.10;;;;;;;17.71;60.74;102087.06;4965938;28;96950;-64
2023/09/05 02:52:29;;;;;;;1.93;1.83;;;;;;;17.70;60.92;102093.16;4965952;28;98069;-64
2023/09/05 02:54:54;;;;;;;2.40;2.20;;;;;;;17.70;60.86;102082.78;4966358;28;97110;-64
2023/09/05 02:57:21;;;;;;;2.73;2.10;;;;;;;17.69;60.88;102084.03;4963199;28;97199;-64
2023/09/05 02:59:46;;;;;;;2.13;1.90;;;;;;;17.68;60.80;102079.75;4968650;28;97027;-64
2023/09/05 03:02:12;;;;;;;2.83;1.90;;;;;;;17.67;60.91;102069.88;4970028;28;97136;-63
2023/09/05 03:04:37;;;;;;;2.03;1.93;;;;;;;17.67;61.09;102078.22;4967410;28;97528;-64
2023/09/05 03:07:03;;;;;;;2.53;1.97;;;;;;;17.66;61.02;102085.06;4967012;28;97428;-63
2023/09/05 03:09:29;;;;;;;2.20;2.00;;;;;;;17.66;60.91;102078.75;4967855;28;97330;-63
2023/09/05 03:11:55;;;;;;;2.10;2.00;;;;;;;17.66;61.07;102079.50;4967132;28;97169;-64
2023/09/05 03:14:20;;;;;;;2.17;2.07;;;;;;;17.68;61.05;102081.78;4965007;28;97085;-64
2023/09/05 03:16:46;;;;;;;2.20;2.10;;;;;;;17.68;60.98;102065.06;4965309;28;97034;-64
2023/09/05 03:19:11;;;;;;;2.90;2.20;;;;;;;17.65;61.06;102066.06;4966762;28;97038;-63
2023/09/05 03:21:40;;;;;;;1.90;1.80;;;;;;;17.67;61.02;102069.88;4961079;28;98012;-64
2023/09/05 03:24:05;;;;;;;1.87;1.77;;;;;;;17.66;61.17;102073.19;4967568;28;99555;-64
2023/09/05 03:26:30;;;;;;;4.23;2.13;;;;;;;17.65;61.24;102068.84;4968937;28;97072;-64
2023/09/05 03:28:56;;;;;;;2.30;2.10;;;;;;;17.66;61.29;102059.25;4963967;28;96815;-64
2023/09/05 03:31:24;;;;;;;1.87;1.77;;;;;;;17.66;61.15;102068.38;4964578;28;97403;-63
2023/09/05 03:33:50;;;;;;;2.50;2.33;;;;;;;17.65;61.00;102066.84;4965695;28;97693;-63
2023/09/05 03:36:16;;;;;;;2.23;2.03;;;;;;;17.64;61.07;102065.34;4964044;28;97058;-64
2023/09/05 03:38:41;;;;;;;2.40;2.17;;;;;;;17.64;61.12;102057.00;4966757;28;98248;-64
2023/09/05 03:41:08;;;;;;;2.20;2.10;;;;;;;17.65;61.21;102058.50;4962762;28;96992;-64
2023/09/05 03:43:33;;;;;;;2.10;2.00;;;;;;;17.66;61.29;102048.13;4965652;28;97396;-64
2023/09/05 03:45:59;;;;;;;3.57;2.40;;;;;;;17.69;61.29;102045.06;4968505;28;97125;-63
2023/09/05 03:48:24;;;;;;;2.70;2.17;;;;;;;17.71;61.16;102045.31;4962003;28;97383;-63
2023/09/05 03:50:50;;;;;;;1.50;1.40;;;;;;;17.71;61.18;102042.53;4963430;28;97753;-64
2023/09/05 03:53:15;;;;;;;5.00;1.80;;;;;;;17.69;61.16;102045.06;4966083;28;98806;-64
2023/09/05 03:55:40;;;;;;;2.57;2.20;;;;;;;17.66;61.20;102048.88;4968925;28;96974;-63
2023/09/05 03:58:06;;;;;;;1.90;1.80;;;;;;;17.64;61.20;102042.31;4968372;28;97465;-64
2023/09/05 04:00:34;;;;;;;2.10;2.00;;;;;;;17.64;61.30;102043.06;4967099;28;97088;-64
2023/09/05 04:03:04;;;;;;;2.00;1.90;;;;;;;17.61;61.22;102060.78;4965249;28;97253;-64
2023/09/05 04:05:29;;;;;;;2.07;1.97;;;;;;;17.61;61.28;102051.66;4962704;28;96977;-63
2023/09/05 04:07:55;;;;;;;1.90;1.80;;;;;;;17.59;61.28;102060.53;4961442;28;97214;-63
2023/09/05 04:10:21;;;;;;;1.90;1.80;;;;;;;17.57;61.28;102057.50;4965552;28;100855;-63
2023/09/05 04:12:46;;;;;;;2.17;2.07;;;;;;;17.51;61.19;102062.31;4967174;28;97545;-64
2023/09/05 04:15:11;;;;;;;2.13;1.93;;;;;;;17.51;61.22;102065.09;4961852;28;97357;-63
2023/09/05 04:17:37;;;;;;;2.20;2.10;;;;;;;17.50;61.25;102055.22;4966721;28;96959;-63
2023/09/05 04:20:06;;;;;;;3.77;2.17;;;;;;;17.46;61.28;102054.69;4964413;28;97489;-63
2023/09/05 04:22:32;;;;;;;1.70;1.60;;;;;;;17.47;61.27;102050.66;4966742;28;96794;-63
2023/09/05 04:24:57;;;;;;;1.63;1.53;;;;;;;17.45;61.22;102058.72;4966593;28;97160;-64
2023/09/05 04:27:23;;;;;;;1.80;1.70;;;;;;;17.44;61.29;102048.88;4966930;28;97422;-63
2023/09/05 04:29:54;;;;;;;2.13;1.87;;;;;;;17.43;61.42;102055.69;4967212;28;96973;-63
2023/09/05 04:32:31;;;;;;;1.90;1.80;;;;;;;17.43;61.42;102055.69;4965002;28;97099;-63
2023/09/05 04:35:00;;;;;;;5.00;1.97;;;;;;;17.46;61.54;102049.13;4961425;28;97355;-63
2023/09/05 04:37:27;;;;;;;2.00;1.90;;;;;;;17.46;61.37;102051.91;4967224;28;96994;-63
2023/09/05 04:39:53;;;;;;;1.50;1.40;;;;;;;17.48;61.57;102063.28;4965225;28;97181;-64
2023/09/05 04:42:19;;;;;;;2.23;2.10;;;;;;;17.45;61.40;102053.16;4963734;28;97057;-63
2023/09/05 04:44:44;;;;;;;2.13;2.03;;;;;;;17.43;61.42;102054.94;4967799;28;97411;-63
2023/09/05 04:47:20;;;;;;;2.90;1.97;;;;;;;17.40;61.75;102053.94;4966086;28;97308;-63
2023/09/05 04:49:47;;;;;;;1.97;1.87;;;;;;;17.38;61.53;102055.69;4965942;28;98046;-64
2023/09/05 04:52:14;;;;;;;2.33;2.13;;;;;;;17.34;61.47;102078.22;4967496;28;97561;-63
2023/09/05 04:54:40;;;;;;;2.00;1.90;;;;;;;17.33;61.61;102062.78;4968206;28;97081;-63
2023/09/05 04:57:05;;;;;;;2.10;2.00;;;;;;;17.33;61.50;102060.00;4970404;28;97703;-64
2023/09/05 04:59:30;;;;;;;1.70;1.60;;;;;;;17.33;61.64;102062.78;4968013;28;103426;-63
2023/09/05 05:01:56;;;;;;;2.37;1.60;;;;;;;17.32;61.59;102061.25;4970625;28;102076;-63
2023/09/05 05:04:22;;;;;;;1.90;1.80;;;;;;;17.30;61.58;102072.13;4975432;28;100556;-64
2023/09/05 05:06:47;;;;;;;2.00;1.90;;;;;;;17.30;61.79;102072.13;4975957;28;97255;-63
2023/09/05 05:09:12;;;;;;;5.63;2.10;;;;;;;17.28;61.87;102071.88;4968315;28;97451;-64
2023/09/05 05:11:38;;;;;;;1.90;1.80;;;;;;;17.30;61.83;102066.56;4963673;28;97522;-63
2023/09/05 05:14:03;;;;;;;2.97;2.20;;;;;;;17.27;61.74;102061.25;4967938;28;97224;-64
2023/09/05 05:16:28;;;;;;;2.37;2.17;;;;;;;17.31;61.92;102070.09;4967733;28;96895;-64
2023/09/05 05:18:54;;;;;;;2.33;2.13;;;;;;;17.32;61.79;102060.50;4966334;28;110720;-64
2023/09/05 05:21:19;;;;;;;2.00;1.90;;;;;;;17.33;61.77;102057.22;4963488;28;97446;-63
2023/09/05 05:23:44;;;;;;;1.60;1.50;;;;;;;17.35;61.91;102065.03;4971193;28;96903;-64
2023/09/05 05:26:10;;;;;;;2.37;1.90;;;;;;;17.35;61.81;102067.81;4973099;28;102643;-64
2023/09/05 05:28:35;;;;;;;2.50;2.17;;;;;;;17.34;61.94;102052.41;4969420;28;99218;-63
2023/09/05 05:31:00;;;;;;;2.47;2.30;;;;;;;17.36;61.95;102064.56;4967683;28;100523;-64
2023/09/05 05:33:25;;;;;;;3.40;2.17;;;;;;;17.37;62.00;102063.28;4969184;28;96775;-63
2023/09/05 05:35:53;;;;;;;2.60;2.40;;;;;;;17.39;62.01;102066.31;4971828;28;97075;-63
2023/09/05 05:38:18;;;;;;;2.30;2.10;;;;;;;17.40;62.01;102067.09;4967708;28;97212;-63
2023/09/05 05:40:43;;;;;;;2.30;2.10;;;;;;;17.38;62.07;102064.81;4967490;28;103162;-63
2023/09/05 05:43:09;;;;;;;2.87;1.93;;;;;;;17.43;61.99;102074.44;4971632;28;97090;-63
2023/09/05 05:45:34;;;;;;;2.37;2.27;;;;;;;17.41;62.09;102069.34;4968923;28;97109;-63
2023/09/05 05:47:59;;;;;;;2.17;2.07;;;;;;;17.42;61.94;102082.00;4968502;28;110261;-63
2023/09/05 05:50:24;;;;;;;2.70;1.70;;;;;;;17.46;62.17;102063.03;4969142;28;109002;-64
2023/09/05 05:52:50;;;;;;;2.57;2.37;;;;;;;17.50;62.31;102065.56;4972052;28;97193;-63
2023/09/05 05:55:15;;;;;;;2.90;2.70;;;;;;;17.54;62.27;102069.63;4966583;28;97109;-63
2023/09/05 05:57:40;;;;;;;2.40;2.20;;;;;;;17.59;62.16;102065.31;4970929;28;96976;-64
2023/09/05 06:00:07;;;;;;;2.70;1.87;;;;;;;17.64;62.19;102070.13;4968126;28;107306;-63
2023/09/05 06:02:33;;;;;;;2.23;2.13;;;;;;;17.66;62.32;102065.59;4966278;28;96858;-63
2023/09/05 06:04:59;;;;;;;2.17;1.90;;;;;;;17.70;62.35;102077.22;4971036;28;97113;-63
2023/09/05 06:07:25;;;;;;;2.07;1.90;;;;;;;17.71;62.19;102067.59;4968333;28;97143;-64
2023/09/05 06:09:50;;;;;;;2.10;2.00;;;;;;;17.75;62.20;102059.00;4963392;28;97164;-63
2023/09/05 06:12:15;;;;;;;1.90;1.80;;;;;;;17.78;62.26;102058.72;4963736;28;96688;-63
2023/09/05 06:14:40;;;;;;;8.50;2.00;;;;;;;17.80;62.42;102067.34;4967738;28;98150;-64
2023/09/05 06:17:06;;;;;;;2.10;2.00;;;;;;;17.84;62.28;102073.41;4966703;28;110719;-63
2023/09/05 06:19:31;;;;;;;2.60;1.73;;;;;;;17.86;62.27;102070.88;4964145;28;97178;-63
2023/09/05 06:21:58;;;;;;;3.77;2.23;;;;;;;17.92;62.30;102074.41;4964925;28;97110;-63
2023/09/05 06:24:23;;;;;;;2.00;1.80;;;;;;;17.95;62.51;102072.63;4965275;28;96678;-63
2023/09/05 06:26:49;;;;;;;7.40;2.10;;;;;;;18.01;62.39;102080.97;4969541;28;97495;-63
2023/09/05 06:29:14;;;;;;;2.30;2.13;;;;;;;18.07;62.47;102076.13;4966692;28;110923;-64
2023/09/05 06:31:40;;;;;;;3.40;1.80;;;;;;;18.14;62.39;102073.59;4964954;28;97486;-63
2023/09/05 06:34:05;;;;;;;2.00;1.90;;;;;;;18.21;62.70;102067.50;4960541;28;97215;-64
2023/09/05 06:36:30;;;;;;;5.20;2.10;;;;;;;18.26;62.44;102068.75;4964653;28;98038;-64
2023/09/05 06:38:56;;;;;;;4.20;2.17;;;;;;;18.33;62.54;102062.63;4968541;28;104662;-63
2023/09/05 06:41:21;;;;;;;1.90;1.80;;;;;;;18.38;62.49;102071.00;4972319;28;97329;-63
2023/09/05 06:43:46;;;;;;;2.00;1.90;;;;;;;18.43;62.84;102061.84;4967218;28;97548;-63
2023/09/05 06:46:12;;;;;;;2.50;2.03;;;;;;;18.49;62.57;102068.19;4967067;28;106752;-63
2023/09/05 06:48:39;;;;;;;2.23;2.13;;;;;;;18.57;62.50;102063.59;4965920;28;97292;-64
2023/09/05 06:51:05;;;;;;;5.53;2.00;;;;;;;18.62;62.65;102054.44;4965462;28;97219;-63
2023/09/05 06:53:31;;;;;;;2.43;1.90;;;;;;;18.68;62.59;102063.53;4965888;28;97286;-64
2023/09/05 06:55:57;;;;;;;4.40;2.00;;;;;;;18.77;62.45;102062.47;4966813;28;97458;-63
2023/09/05 06:58:24;;;;;;;2.50;2.00;;;;;;;18.85;62.75;102057.84;4954813;28;98515;-64
2023/09/05 07:00:53;;;;;;;4.33;2.30;;;;;;;18.93;62.70;102058.06;4966473;28;97014;-63
2023/09/05 07:03:23;;;;;;;1.83;1.73;;;;;;;19.01;62.94;102057.00;4954779;28;97043;-64
2023/09/05 07:05:48;;;;;;;1.87;1.77;;;;;;;19.09;62.70;102060.00;4965018;28;97047;-63
2023/09/05 07:08:14;;;;;;;2.83;2.20;;;;;;;19.17;62.86;102058.94;4966753;28;97819;-63
2023/09/05 07:10:39;;;;;;;2.57;2.37;;;;;;;19.25;63.05;102051.50;4965104;28;97473;-63
2023/09/05 07:13:04;;;;;;;2.20;2.00;;;;;;;19.36;62.74;102056.25;4963012;28;96944;-64
2023/09/05 07:15:29;;;;;;;2.23;2.03;;;;;;;19.45;62.88;102050.34;4963009;28;97172;-63
2023/09/05 07:17:55;;;;;;;2.60;2.40;;;;;;;19.55;62.91;102048.72;4965387;28;97192;-63
2023/09/05 07:20:20;;;;;;;3.70;1.80;;;;;;;19.64;62.97;102045.59;4965695;28;97439;-64
2023/09/05 07:22:45;;;;;;;3.37;1.90;;;;;;;19.74;62.76;102057.97;4966614;28;97190;-63
2023/09/05 07:25:11;;;;;;;2.17;2.07;;;;;;;19.85;62.85;102055.06;4966814;28;97389;-63
2023/09/05 07:27:36;;;;;;;2.20;2.00;;;;;;;19.94;62.79;102057.50;4966980;28;97151;-64
2023/09/05 07:30:02;;;;;;;2.17;2.00;;;;;;;20.05;62.81;102053.84;4967199;28;97229;-63
2023/09/05 07:32:27;;;;;;;1.90;1.77;;;;;;;20.15;62.74;102052.19;4963342;28;97115;-63
2023/09/05 07:34:52;;;;;;;4.70;2.00;;;;;;;20.29;62.69;102047.50;4961695;28;96846;-64
2023/09/05 07:37:18;;;;;;;2.67;2.47;;;;;;;20.42;62.27;102050.38;4963779;28;97454;-63
2023/09/05 07:39:45;;;;;;;2.13;1.90;;;;;;;20.52;62.36;102046.69;4967237;28;97114;-63
2023/09/05 07:42:10;;;;;;;2.90;2.30;;;;;;;20.64;62.23;102053.63;4966011;28;97343;-63
2023/09/05 07:44:35;;;;;;;2.27;2.07;;;;;;;20.76;62.15;102052.22;4966101;28;97711;-63
2023/09/05 07:47:01;;;;;;;2.33;2.13;;;;;;;20.87;62.11;102063.25;4971133;28;97907;-63
2023/09/05 07:49:26;;;;;;;1.80;1.70;;;;;;;20.98;61.89;102062.31;4970864;28;97034;-63
2023/09/05 07:51:54;;;;;;;1.80;1.70;;;;;;;21.10;61.66;102062.94;4961591;28;96636;-64
2023/09/05 07:54:20;;;;;;;1.90;1.73;;;;;;;21.21;61.60;102062.78;4964871;28;97880;-63
2023/09/05 07:56:46;;;;;;;1.60;1.50;;;;;;;21.33;61.38;102064.84;4965242;28;97148;-63
2023/09/05 07:59:11;;;;;;;1.90;1.80;;;;;;;21.43;61.16;102065.19;4966955;28;96779;-63
2023/09/05 08:01:37;;;;;;;2.40;2.20;;;;;;;21.57;61.11;102069.53;4969033;28;96740;-63
2023/09/05 08:04:03;;;;;;;1.77;1.67;;;;;;;21.69;60.65;102070.84;4971320;28;97542;-63
2023/09/05 08:06:28;;;;;;;1.57;1.47;;;;;;;21.81;60.55;102077.78;4965537;28;97146;-63
2023/09/05 08:08:54;;;;;;;2.03;1.83;;;;;;;21.93;60.17;102072.75;4965403;28;99705;-62
2023/09/05 08:11:19;;;;;;;1.57;1.47;;;;;;;22.04;59.97;102075.38;4964824;28;97030;-60
2023/09/05 08:13:44;;;;;;;1.50;1.40;;;;;;;22.15;59.74;102073.06;4962169;28;106017;-63
2023/09/05 08:16:10;;;;;;;1.57;1.47;;;;;;;22.29;59.80;102077.41;4964740;28;110657;-62
2023/09/05 08:18:36;;;;;;;2.20;1.57;;;;;;;22.44;59.11;102071.22;4967337;28;97779;-63
2023/09/05 08:21:04;;;;;;;2.70;2.00;;;;;;;22.59;58.94;102077.06;4967731;28;97221;-62
2023/09/05 08:23:29;;;;;;;1.90;1.80;;;;;;;22.73;58.79;102074.97;4963379;28;97448;-62
2023/09/05 08:25:56;;;;;;;3.07;1.60;;;;;;;22.86;58.58;102070.09;4969501;28;97169;-63
2023/09/05 08:28:21;;;;;;;1.73;1.30;;;;;;;23.02;58.51;102073.81;4972942;28;97094;-62
2023/09/05 08:30:47;;;;;;;1.67;1.57;;;;;;;23.15;58.32;102075.81;4966257;28;97827;-63
2023/09/05 08:33:12;;;;;;;2.70;2.10;;;;;;;23.29;58.11;102077.25;4968140;28;97137;-63
2023/09/05 08:35:37;;;;;;;2.00;1.57;;;;;;;23.43;57.76;102073.09;4966252;28;97186;-63
2023/09/05 08:38:05;;;;;;;2.23;1.60;;;;;;;23.60;57.45;102065.00;4966564;28;96936;-61
2023/09/05 08:40:34;;;;;;;1.53;1.43;;;;;;;23.77;57.10;102066.06;4968199;28;96996;-62
2023/09/05 08:43:01;;;;;;;1.87;1.50;;;;;;;23.98;57.03;102059.66;4967977;28;97328;-62
2023/09/05 08:45:29;;;;;;;1.73;1.60;;;;;;;24.14;56.74;102045.16;4966083;28;97163;-63
2023/09/05 08:47:55;;;;;;;1.50;1.27;;;;;;;24.31;56.69;102044.69;4963813;28;96838;-63
2023/09/05 08:50:20;;;;;;;1.50;1.40;;;;;;;24.48;56.38;102044.94;4961556;28;97456;-63
2023/09/05 08:52:47;;;;;;;3.33;1.87;;;;;;;24.66;56.37;102049.50;4967651;28;97498;-62
2023/09/05 08:55:13;;;;;;;1.93;1.83;;;;;;;24.81;56.33;102043.19;4968461;28;96775;-63
2023/09/05 08:57:38;;;;;;;1.60;1.50;;;;;;;24.92;56.37;102040.78;4966488;28;97540;-62
2023/09/05 09:00:08;;;;;;;2.33;1.77;;;;;;;25.03;55.94;102034.78;4964352;28;97124;-62
2023/09/05 09:02:35;;;;;;;1.70;1.60;;;;;;;25.14;55.84;102044.97;4963236;28;97431;-62
2023/09/05 09:05:01;;;;;;;2.03;1.60;;;;;;;25.34;55.25;102040.47;4963319;28;97092;-61
2023/09/05 09:07:27;;;;;;;1.63;1.53;;;;;;;25.52;54.74;102044.97;4966525;28;96997;-62
2023/09/05 09:09:54;;;;;;;1.40;1.30;;;;;;;25.69;54.78;102039.50;4964315;28;96686;-62
2023/09/05 09:12:30;;;;;;;1.97;1.40;;;;;;;25.80;54.51;102042.69;4966651;28;98135;-62
2023/09/05 09:14:56;;;;;;;1.40;1.30;;;;;;;25.92;54.69;102048.69;4968036;28;97213;-61
2023/09/05 09:17:23;;;;;;;1.53;1.33;;;;;;;26.03;54.43;102046.25;4965972;28;97042;-62
2023/09/05 09:19:51;;;;;;;2.43;1.43;;;;;;;26.16;54.30;102044.53;4966670;28;97132;-62
2023/09/05 09:22:24;;;;;;;2.00;1.30;;;;;;;26.29;53.36;102038.66;4964969;28;96974;-62
2023/09/05 09:24:50;;;;;;;2.87;1.50;;;;;;;26.37;54.11;102034.47;4964084;28;97148;-62
2023/09/05 09:27:18;;;;;;;1.53;1.43;;;;;;;26.46;53.86;102031.03;4968125;28;96806;-61
2023/09/05 09:29:53;;;;;;;1.73;1.63;;;;;;;26.55;52.13;102035.34;4968704;28;97301;-61
2023/09/05 09:32:19;;;;;;;2.93;1.60;;;;;;;26.67;53.39;102033.56;4971337;28;97543;-61
2023/09/05 09:34:45;;;;;;;1.50;1.40;;;;;;;26.75;53.08;102031.50;4966168;28;97175;-61
2023/09/05 09:37:10;;;;;;;1.40;1.30;;;;;;;26.85;53.05;102042.91;4973279;28;97195;-62
2023/09/05 09:39:35;;;;;;;1.33;1.23;;;;;;;26.95;52.46;102029.69;4972193;28;97182;-62
2023/09/05 09:42:01;;;;;;;1.07;0.97;;;;;;;27.05;52.12;102034.13;4967030;28;97071;-61
2023/09/05 09:44:32;;;;;;;3.20;1.53;;;;;;;27.15;51.83;102029.31;4966359;28;96957;-62
2023/09/05 09:46:59;;;;;;;1.70;1.60;;;;;;;27.23;51.61;102029.28;4969211;28;97330;-61
2023/09/05 09:49:27;;;;;;;1.00;1.00;;;;;;;27.30;50.90;102032.03;4967968;28;96950;-60
2023/09/05 09:51:57;;;;;;;1.40;1.30;;;;;;;27.40;50.56;102018.78;4970220;28;96972;-61
2023/09/05 09:54:36;;;;;;;1.87;1.77;;;;;;;27.51;50.05;102025.28;4967860;28;96987;-61
2023/09/05 09:57:04;;;;;;;1.10;1.03;;;;;;;27.59;50.41;102006.91;4970892;28;97185;-60
2023/09/05 09:59:37;;;;;;;1.30;1.20;;;;;;;27.64;50.64;102022.91;4966388;28;97356;-62
2023/09/05 10:02:08;;;;;;;1.83;1.20;;;;;;;27.73;49.63;102016.59;4971615;28;96809;-61
2023/09/05 10:04:35;;;;;;;2.00;1.23;;;;;;;27.80;49.98;102021.44;4967177;28;97645;-61
2023/09/05 10:07:05;;;;;;;1.40;1.30;;;;;;;27.88;49.86;102030.59;4969587;28;96974;-61
2023/09/05 10:09:31;;;;;;;1.50;1.40;;;;;;;27.94;50.03;102025.41;4968160;28;97182;-61
2023/09/05 10:12:00;;;;;;;1.53;1.33;;;;;;;27.99;49.74;102020.88;4968554;28;98887;-61
2023/09/05 10:14:27;;;;;;;1.53;1.43;;;;;;;28.01;49.50;102018.19;4964446;28;96808;-61
2023/09/05 10:16:53;;;;;;;1.50;1.13;;;;;;;28.06;49.28;102017.97;4964389;28;97310;-61
2023/09/05 10:19:21;;;;;;;1.50;1.40;;;;;;;28.15;49.04;102020.09;4968167;28;96778;-61
2023/09/05 10:21:49;;;;;;;1.57;1.47;;;;;;;28.17;49.10;102013.88;4964674;28;98425;-61
2023/09/05 10:24:15;;;;;;;1.20;1.10;;;;;;;28.23;49.31;102013.59;4964475;28;97175;-61
2023/09/05 10:26:41;;;;;;;2.13;1.20;;;;;;;28.28;49.02;102012.59;4969898;28;97283;-61
2023/09/05 10:29:38;;;;;;;1.40;1.20;;;;;;;28.33;47.37;102003.09;4972442;28;97159;-61
2023/09/05 10:32:04;;;;;;;1.67;1.20;;;;;;;28.40;48.28;102003.00;4967194;28;97348;-61
2023/09/05 10:34:48;;;;;;;1.57;1.47;;;;;;;28.46;47.83;101994.25;4970398;28;97177;-62
2023/09/05 10:37:21;;;;;;;2.13;1.50;;;;;;;28.52;47.88;101991.91;4970343;28;97245;-61
2023/09/05 10:39:48;;;;;;;1.97;1.20;;;;;;;28.58;48.26;101998.06;4964580;28;97423;-60
2023/09/05 10:42:14;;;;;;;1.47;1.37;;;;;;;28.69;48.57;101989.03;4963991;28;99624;-61
2023/09/05 10:44:45;;;;;;;1.87;1.03;;;;;;;28.77;47.48;101986.81;4966359;28;97296;-62
2023/09/05 10:47:27;;;;;;;1.47;1.37;;;;;;;28.85;47.28;101987.47;4966664;28;97179;-61
2023/09/05 10:50:02;;;;;;;1.00;1.00;;;;;;;28.91;46.48;101971.69;4965575;28;97126;-61
2023/09/05 10:52:29;;;;;;;1.10;1.00;;;;;;;28.99;46.92;101970.78;4961861;28;97378;-60
2023/09/05 10:54:55;;;;;;;1.20;1.10;;;;;;;29.09;46.94;101969.50;4965464;28;97224;-61
2023/09/05 10:57:42;;;;;;;1.73;1.20;;;;;;;29.22;45.35;101971.22;4963634;28;96958;-61
2023/09/05 11:00:17;;;;;;;1.27;1.17;;;;;;;29.35;45.34;101963.03;4962959;28;97444;-61
2023/09/05 11:02:44;;;;;;;1.37;0.87;;;;;;;29.48;45.75;101956.19;4964879;28;97293;-61
2023/09/05 11:05:20;;;;;;;1.27;1.03;;;;;;;29.63;44.52;101964.41;4962259;28;96978;-60
2023/09/05 11:07:50;;;;;;;1.10;1.00;;;;;;;29.73;45.32;101955.91;4962402;28;97538;-61
2023/09/05 11:10:51;;;;;;;1.30;1.20;;;;;;;29.83;44.19;101951.00;4960326;28;97312;-61
2023/09/05 11:13:17;;;;;;;2.30;0.97;;;;;;;30.00;44.95;101956.50;4940067;28;97333;-61
2023/09/05 11:15:45;;;;;;;1.50;1.30;;;;;;;30.10;44.36;101955.13;4969199;28;97074;-62
2023/09/05 11:18:14;;;;;;;1.27;0.93;;;;;;;30.18;44.10;101937.94;4968389;28;96903;-61
2023/09/05 11:20:40;;;;;;;1.47;0.90;;;;;;;30.28;44.11;101942.25;4965642;28;97233;-61
2023/09/05 11:23:25;;;;;;;0.93;0.80;;;;;;;30.40;43.49;101950.19;4967969;28;96760;-61